sensor_id;sensor_type;location;lat;lon;timestamp;P1;durP1;ratioP1;P2;durP2;ratioP2
4529;SDS011;2277;51.626;7.516;2022-11-15T00:00:32;7.90;;;5.37;;
4529;SDS011;2277;51.626;7.516;2022-11-15T00:02:59;6.00;;;5.20;;
4529;SDS011;2277;51.626;7.516;2022-11-15T00:05:24;4.50;;;3.73;;
4529;SDS011;2277;51.626;7.516;2022-11-15T00:07:50;4.33;;;3.70;;
4529;SDS011;2277;51.626;7.516;2022-11-15T00:10:15;7.07;;;6.20;;
4529;SDS011;2277;51.626;7.516;2022-11-15T00:12:41;5.07;;;4.67;;
4529;SDS011;2277;51.626;7.516;2022-11-15T00:15:07;3.37;;;3.17;;
4529;SDS011;2277;51.626;7.516;2022-11-15T00:17:33;6.17;;;5.37;;
4529;SDS011;2277;51.626;7.516;2022-11-15T00:19:58;4.40;;;3.93;;
4529;SDS011;2277;51.626;7.516;2022-11-15T00:22:24;7.17;;;5.47;;
4529;SDS011;2277;51.626;7.516;2022-11-15T00:24:49;5.07;;;4.53;;
4529;SDS011;2277;51.626;7.516;2022-11-15T00:27:15;4.63;;;3.80;;
4529;SDS011;2277;51.626;7.516;2022-11-15T00:29:41;3.47;;;3.17;;
4529;SDS011;2277;51.626;7.516;2022-11-15T00:32:09;4.77;;;4.37;;
4529;SDS011;2277;51.626;7.516;2022-11-15T00:34:35;11.13;;;5.93;;
4529;SDS011;2277;51.626;7.516;2022-11-15T00:37:01;3.63;;;3.20;;
4529;SDS011;2277;51.626;7.516;2022-11-15T00:39:27;4.87;;;4.47;;
4529;SDS011;2277;51.626;7.516;2022-11-15T00:41:52;3.47;;;3.17;;
4529;SDS011;2277;51.626;7.516;2022-11-15T00:44:18;5.53;;;4.03;;
4529;SDS011;2277;51.626;7.516;2022-11-15T00:46:43;3.83;;;3.50;;
4529;SDS011;2277;51.626;7.516;2022-11-15T00:49:09;4.63;;;4.23;;
4529;SDS011;2277;51.626;7.516;2022-11-15T00:51:34;5.30;;;3.83;;
4529;SDS011;2277;51.626;7.516;2022-11-15T00:54:00;3.63;;;3.30;;
4529;SDS011;2277;51.626;7.516;2022-11-15T00:56:25;6.57;;;5.70;;
4529;SDS011;2277;51.626;7.516;2022-11-15T00:58:52;4.60;;;3.23;;
4529;SDS011;2277;51.626;7.516;2022-11-15T01:01:18;7.70;;;4.10;;
4529;SDS011;2277;51.626;7.516;2022-11-15T01:03:43;4.43;;;3.20;;
4529;SDS011;2277;51.626;7.516;2022-11-15T01:06:11;6.50;;;4.80;;
4529;SDS011;2277;51.626;7.516;2022-11-15T01:08:38;4.47;;;3.53;;
4529;SDS011;2277;51.626;7.516;2022-11-15T01:11:06;3.93;;;3.63;;
4529;SDS011;2277;51.626;7.516;2022-11-15T01:13:36;7.23;;;6.43;;
4529;SDS011;2277;51.626;7.516;2022-11-15T01:16:13;3.83;;;3.47;;
4529;SDS011;2277;51.626;7.516;2022-11-15T01:18:42;4.30;;;3.90;;
4529;SDS011;2277;51.626;7.516;2022-11-15T01:21:09;4.17;;;2.53;;
4529;SDS011;2277;51.626;7.516;2022-11-15T01:23:37;6.20;;;5.00;;
4529;SDS011;2277;51.626;7.516;2022-11-15T01:26:04;5.37;;;4.37;;
4529;SDS011;2277;51.626;7.516;2022-11-15T01:28:32;3.47;;;2.97;;
4529;SDS011;2277;51.626;7.516;2022-11-15T01:30:59;3.77;;;3.17;;
4529;SDS011;2277;51.626;7.516;2022-11-15T01:33:30;4.47;;;3.40;;
4529;SDS011;2277;51.626;7.516;2022-11-15T01:35:58;5.33;;;4.83;;
4529;SDS011;2277;51.626;7.516;2022-11-15T01:38:29;5.43;;;3.20;;
4529;SDS011;2277;51.626;7.516;2022-11-15T01:40:54;4.80;;;3.57;;
4529;SDS011;2277;51.626;7.516;2022-11-15T01:43:20;5.87;;;4.67;;
4529;SDS011;2277;51.626;7.516;2022-11-15T01:45:49;4.50;;;4.00;;
4529;SDS011;2277;51.626;7.516;2022-11-15T01:48:19;3.00;;;2.80;;
4529;SDS011;2277;51.626;7.516;2022-11-15T01:50:47;4.57;;;4.13;;
4529;SDS011;2277;51.626;7.516;2022-11-15T01:53:13;4.97;;;3.63;;
4529;SDS011;2277;51.626;7.516;2022-11-15T01:55:40;4.53;;;4.13;;
4529;SDS011;2277;51.626;7.516;2022-11-15T01:58:06;6.30;;;4.97;;
4529;SDS011;2277;51.626;7.516;2022-11-15T02:00:32;6.10;;;4.77;;
4529;SDS011;2277;51.626;7.516;2022-11-15T02:02:57;7.23;;;4.97;;
4529;SDS011;2277;51.626;7.516;2022-11-15T02:05:23;6.87;;;6.07;;
4529;SDS011;2277;51.626;7.516;2022-11-15T02:07:49;3.17;;;2.73;;
4529;SDS011;2277;51.626;7.516;2022-11-15T02:10:19;7.57;;;5.03;;
4529;SDS011;2277;51.626;7.516;2022-11-15T02:12:47;4.80;;;4.00;;
4529;SDS011;2277;51.626;7.516;2022-11-15T02:15:13;6.63;;;5.57;;
4529;SDS011;2277;51.626;7.516;2022-11-15T02:25:53;11.13;;;4.50;;
4529;SDS011;2277;51.626;7.516;2022-11-15T02:28:44;6.10;;;5.20;;
4529;SDS011;2277;51.626;7.516;2022-11-15T02:31:35;6.63;;;4.40;;
4529;SDS011;2277;51.626;7.516;2022-11-15T02:37:21;4.53;;;4.20;;
4529;SDS011;2277;51.626;7.516;2022-11-15T02:40:03;16.00;;;4.73;;
4529;SDS011;2277;51.626;7.516;2022-11-15T02:42:35;5.93;;;4.73;;
4529;SDS011;2277;51.626;7.516;2022-11-15T02:45:28;5.57;;;3.03;;
4529;SDS011;2277;51.626;7.516;2022-11-15T02:47:57;7.47;;;4.43;;
4529;SDS011;2277;51.626;7.516;2022-11-15T02:50:27;3.60;;;3.20;;
4529;SDS011;2277;51.626;7.516;2022-11-15T02:52:54;5.13;;;4.10;;
4529;SDS011;2277;51.626;7.516;2022-11-15T02:57:59;3.60;;;2.80;;
4529;SDS011;2277;51.626;7.516;2022-11-15T03:00:45;4.47;;;4.07;;
4529;SDS011;2277;51.626;7.516;2022-11-15T03:08:51;3.47;;;3.17;;
4529;SDS011;2277;51.626;7.516;2022-11-15T03:11:19;4.83;;;3.57;;
4529;SDS011;2277;51.626;7.516;2022-11-15T03:18:50;4.33;;;3.90;;
4529;SDS011;2277;51.626;7.516;2022-11-15T03:21:27;3.97;;;2.67;;
4529;SDS011;2277;51.626;7.516;2022-11-15T03:23:54;4.23;;;3.67;;
4529;SDS011;2277;51.626;7.516;2022-11-15T03:26:23;2.80;;;2.33;;
4529;SDS011;2277;51.626;7.516;2022-11-15T03:29:37;7.63;;;4.17;;
4529;SDS011;2277;51.626;7.516;2022-11-15T03:31:41;4.73;;;3.43;;
4529;SDS011;2277;51.626;7.516;2022-11-15T03:34:32;3.97;;;3.00;;
4529;SDS011;2277;51.626;7.516;2022-11-15T03:37:04;7.30;;;3.63;;
4529;SDS011;2277;51.626;7.516;2022-11-15T03:39:31;4.87;;;4.47;;
4529;SDS011;2277;51.626;7.516;2022-11-15T03:44:36;4.03;;;3.73;;
4529;SDS011;2277;51.626;7.516;2022-11-15T03:47:07;4.57;;;3.97;;
4529;SDS011;2277;51.626;7.516;2022-11-15T03:49:42;7.70;;;3.80;;
4529;SDS011;2277;51.626;7.516;2022-11-15T03:52:11;4.50;;;3.60;;
4529;SDS011;2277;51.626;7.516;2022-11-15T03:54:46;3.60;;;3.23;;
4529;SDS011;2277;51.626;7.516;2022-11-15T03:57:13;3.93;;;3.40;;
4529;SDS011;2277;51.626;7.516;2022-11-15T03:59:39;22.73;;;4.80;;
4529;SDS011;2277;51.626;7.516;2022-11-15T04:02:05;10.53;;;6.07;;
4529;SDS011;2277;51.626;7.516;2022-11-15T04:04:30;4.43;;;4.07;;
4529;SDS011;2277;51.626;7.516;2022-11-15T04:06:56;5.13;;;4.43;;
4529;SDS011;2277;51.626;7.516;2022-11-15T04:09:21;8.30;;;5.33;;
4529;SDS011;2277;51.626;7.516;2022-11-15T04:11:47;3.10;;;2.90;;
4529;SDS011;2277;51.626;7.516;2022-11-15T04:14:12;9.90;;;5.27;;
4529;SDS011;2277;51.626;7.516;2022-11-15T04:16:38;4.87;;;3.73;;
4529;SDS011;2277;51.626;7.516;2022-11-15T04:19:03;7.50;;;2.77;;
4529;SDS011;2277;51.626;7.516;2022-11-15T04:21:48;4.80;;;4.37;;
4529;SDS011;2277;51.626;7.516;2022-11-15T04:24:32;4.57;;;4.23;;
4529;SDS011;2277;51.626;7.516;2022-11-15T04:26:57;2.60;;;2.10;;
4529;SDS011;2277;51.626;7.516;2022-11-15T04:29:23;5.33;;;4.07;;
4529;SDS011;2277;51.626;7.516;2022-11-15T04:32:04;5.30;;;4.90;;
4529;SDS011;2277;51.626;7.516;2022-11-15T04:34:31;2.63;;;2.43;;
4529;SDS011;2277;51.626;7.516;2022-11-15T04:36:57;4.00;;;3.60;;
4529;SDS011;2277;51.626;7.516;2022-11-15T04:39:39;4.13;;;3.83;;
4529;SDS011;2277;51.626;7.516;2022-11-15T04:42:05;5.30;;;4.50;;
4529;SDS011;2277;51.626;7.516;2022-11-15T04:44:31;4.27;;;2.90;;
4529;SDS011;2277;51.626;7.516;2022-11-15T04:46:56;2.87;;;2.60;;
4529;SDS011;2277;51.626;7.516;2022-11-15T04:49:22;3.50;;;3.20;;
4529;SDS011;2277;51.626;7.516;2022-11-15T04:51:47;4.83;;;4.40;;
4529;SDS011;2277;51.626;7.516;2022-11-15T04:54:13;4.67;;;3.20;;
4529;SDS011;2277;51.626;7.516;2022-11-15T04:56:39;5.80;;;4.03;;
4529;SDS011;2277;51.626;7.516;2022-11-15T04:59:04;3.53;;;2.83;;
4529;SDS011;2277;51.626;7.516;2022-11-15T05:01:30;3.20;;;2.80;;
4529;SDS011;2277;51.626;7.516;2022-11-15T05:03:56;3.47;;;2.43;;
4529;SDS011;2277;51.626;7.516;2022-11-15T05:06:40;3.80;;;3.50;;
4529;SDS011;2277;51.626;7.516;2022-11-15T05:09:05;6.23;;;4.57;;
4529;SDS011;2277;51.626;7.516;2022-11-15T05:11:31;3.30;;;2.40;;
4529;SDS011;2277;51.626;7.516;2022-11-15T05:13:57;5.43;;;3.80;;
4529;SDS011;2277;51.626;7.516;2022-11-15T05:16:22;4.03;;;2.63;;
4529;SDS011;2277;51.626;7.516;2022-11-15T05:18:51;3.37;;;2.83;;
4529;SDS011;2277;51.626;7.516;2022-11-15T05:21:18;4.13;;;3.70;;
4529;SDS011;2277;51.626;7.516;2022-11-15T05:23:43;3.87;;;3.30;;
4529;SDS011;2277;51.626;7.516;2022-11-15T05:26:09;3.80;;;3.50;;
4529;SDS011;2277;51.626;7.516;2022-11-15T05:28:36;6.67;;;3.33;;
4529;SDS011;2277;51.626;7.516;2022-11-15T05:31:09;5.57;;;3.73;;
4529;SDS011;2277;51.626;7.516;2022-11-15T05:33:37;4.03;;;3.47;;
4529;SDS011;2277;51.626;7.516;2022-11-15T05:36:09;3.10;;;2.80;;
4529;SDS011;2277;51.626;7.516;2022-11-15T05:38:36;3.07;;;2.77;;
4529;SDS011;2277;51.626;7.516;2022-11-15T05:41:02;4.67;;;4.27;;
4529;SDS011;2277;51.626;7.516;2022-11-15T05:43:30;9.10;;;3.63;;
4529;SDS011;2277;51.626;7.516;2022-11-15T05:45:58;5.90;;;3.30;;
4529;SDS011;2277;51.626;7.516;2022-11-15T05:48:24;4.90;;;4.17;;
4529;SDS011;2277;51.626;7.516;2022-11-15T05:50:50;2.33;;;2.13;;
4529;SDS011;2277;51.626;7.516;2022-11-15T05:53:17;3.77;;;2.90;;
4529;SDS011;2277;51.626;7.516;2022-11-15T05:55:46;3.67;;;3.37;;
4529;SDS011;2277;51.626;7.516;2022-11-15T05:58:12;2.93;;;2.73;;
4529;SDS011;2277;51.626;7.516;2022-11-15T06:00:37;3.97;;;3.53;;
4529;SDS011;2277;51.626;7.516;2022-11-15T06:03:03;4.00;;;3.70;;
4529;SDS011;2277;51.626;7.516;2022-11-15T06:05:29;3.23;;;2.93;;
4529;SDS011;2277;51.626;7.516;2022-11-15T06:07:58;4.67;;;4.20;;
4529;SDS011;2277;51.626;7.516;2022-11-15T06:10:24;4.00;;;2.90;;
4529;SDS011;2277;51.626;7.516;2022-11-15T06:12:59;2.73;;;2.40;;
4529;SDS011;2277;51.626;7.516;2022-11-15T06:15:25;3.10;;;2.77;;
4529;SDS011;2277;51.626;7.516;2022-11-15T06:17:51;3.63;;;3.17;;
4529;SDS011;2277;51.626;7.516;2022-11-15T06:20:17;2.83;;;2.53;;
4529;SDS011;2277;51.626;7.516;2022-11-15T06:22:42;4.53;;;4.07;;
4529;SDS011;2277;51.626;7.516;2022-11-15T06:25:08;6.37;;;3.93;;
4529;SDS011;2277;51.626;7.516;2022-11-15T06:27:34;4.80;;;2.50;;
4529;SDS011;2277;51.626;7.516;2022-11-15T06:30:00;3.50;;;3.20;;
4529;SDS011;2277;51.626;7.516;2022-11-15T06:32:25;3.20;;;3.00;;
4529;SDS011;2277;51.626;7.516;2022-11-15T06:34:51;3.10;;;2.80;;
4529;SDS011;2277;51.626;7.516;2022-11-15T06:37:16;4.20;;;3.00;;
4529;SDS011;2277;51.626;7.516;2022-11-15T06:39:42;2.90;;;2.00;;
4529;SDS011;2277;51.626;7.516;2022-11-15T06:42:08;5.13;;;2.90;;
4529;SDS011;2277;51.626;7.516;2022-11-15T06:44:34;4.83;;;3.50;;
4529;SDS011;2277;51.626;7.516;2022-11-15T06:46:59;3.37;;;3.03;;
4529;SDS011;2277;51.626;7.516;2022-11-15T06:49:25;4.20;;;2.80;;
4529;SDS011;2277;51.626;7.516;2022-11-15T06:51:50;3.27;;;2.97;;
4529;SDS011;2277;51.626;7.516;2022-11-15T06:54:16;10.90;;;2.47;;
4529;SDS011;2277;51.626;7.516;2022-11-15T06:56:42;3.30;;;3.00;;
4529;SDS011;2277;51.626;7.516;2022-11-15T06:59:07;5.13;;;4.73;;
4529;SDS011;2277;51.626;7.516;2022-11-15T07:01:34;3.67;;;3.37;;
4529;SDS011;2277;51.626;7.516;2022-11-15T07:03:59;6.20;;;3.30;;
4529;SDS011;2277;51.626;7.516;2022-11-15T07:06:25;3.27;;;2.97;;
4529;SDS011;2277;51.626;7.516;2022-11-15T07:08:51;4.83;;;3.50;;
4529;SDS011;2277;51.626;7.516;2022-11-15T07:11:16;3.33;;;2.87;;
4529;SDS011;2277;51.626;7.516;2022-11-15T07:13:42;2.57;;;2.37;;
4529;SDS011;2277;51.626;7.516;2022-11-15T07:16:08;2.70;;;2.50;;
4529;SDS011;2277;51.626;7.516;2022-11-15T07:18:38;2.87;;;2.67;;
4529;SDS011;2277;51.626;7.516;2022-11-15T07:21:05;3.70;;;3.30;;
4529;SDS011;2277;51.626;7.516;2022-11-15T07:23:33;2.80;;;2.30;;
4529;SDS011;2277;51.626;7.516;2022-11-15T07:26:00;2.70;;;2.50;;
4529;SDS011;2277;51.626;7.516;2022-11-15T07:28:26;1.93;;;1.73;;
4529;SDS011;2277;51.626;7.516;2022-11-15T07:30:52;2.30;;;2.10;;
4529;SDS011;2277;51.626;7.516;2022-11-15T07:33:18;2.77;;;2.40;;
4529;SDS011;2277;51.626;7.516;2022-11-15T07:35:44;2.30;;;1.80;;
4529;SDS011;2277;51.626;7.516;2022-11-15T07:38:13;1.70;;;1.50;;
4529;SDS011;2277;51.626;7.516;2022-11-15T07:40:39;3.33;;;3.03;;
4529;SDS011;2277;51.626;7.516;2022-11-15T07:43:06;3.50;;;1.63;;
4529;SDS011;2277;51.626;7.516;2022-11-15T07:45:33;1.50;;;1.20;;
4529;SDS011;2277;51.626;7.516;2022-11-15T07:47:59;2.73;;;2.03;;
4529;SDS011;2277;51.626;7.516;2022-11-15T07:50:25;2.23;;;2.03;;
4529;SDS011;2277;51.626;7.516;2022-11-15T07:52:56;3.03;;;2.70;;
4529;SDS011;2277;51.626;7.516;2022-11-15T07:55:23;3.40;;;1.50;;
4529;SDS011;2277;51.626;7.516;2022-11-15T07:57:50;3.67;;;1.80;;
4529;SDS011;2277;51.626;7.516;2022-11-15T08:00:15;1.30;;;1.20;;
4529;SDS011;2277;51.626;7.516;2022-11-15T08:02:42;1.47;;;1.37;;
4529;SDS011;2277;51.626;7.516;2022-11-15T08:05:08;4.13;;;1.57;;
4529;SDS011;2277;51.626;7.516;2022-11-15T08:07:33;1.67;;;1.13;;
4529;SDS011;2277;51.626;7.516;2022-11-15T08:09:59;2.70;;;1.83;;
4529;SDS011;2277;51.626;7.516;2022-11-15T08:12:28;2.80;;;1.07;;
4529;SDS011;2277;51.626;7.516;2022-11-15T08:14:54;1.90;;;1.70;;
4529;SDS011;2277;51.626;7.516;2022-11-15T08:17:21;2.43;;;2.23;;
4529;SDS011;2277;51.626;7.516;2022-11-15T08:19:47;2.67;;;1.33;;
4529;SDS011;2277;51.626;7.516;2022-11-15T08:22:13;1.87;;;1.33;;
4529;SDS011;2277;51.626;7.516;2022-11-15T08:24:39;1.70;;;1.60;;
4529;SDS011;2277;51.626;7.516;2022-11-15T08:27:04;1.80;;;1.40;;
4529;SDS011;2277;51.626;7.516;2022-11-15T08:29:40;2.40;;;1.27;;
4529;SDS011;2277;51.626;7.516;2022-11-15T08:32:09;1.90;;;1.80;;
4529;SDS011;2277;51.626;7.516;2022-11-15T08:34:35;1.37;;;1.23;;
4529;SDS011;2277;51.626;7.516;2022-11-15T08:37:02;1.30;;;1.20;;
4529;SDS011;2277;51.626;7.516;2022-11-15T08:39:28;1.20;;;1.03;;
4529;SDS011;2277;51.626;7.516;2022-11-15T08:41:53;4.17;;;2.10;;
4529;SDS011;2277;51.626;7.516;2022-11-15T08:44:19;2.43;;;1.47;;
4529;SDS011;2277;51.626;7.516;2022-11-15T08:46:47;1.90;;;1.70;;
4529;SDS011;2277;51.626;7.516;2022-11-15T08:49:13;1.90;;;1.70;;
4529;SDS011;2277;51.626;7.516;2022-11-15T08:51:39;5.70;;;1.50;;
4529;SDS011;2277;51.626;7.516;2022-11-15T08:54:04;1.10;;;0.90;;
4529;SDS011;2277;51.626;7.516;2022-11-15T08:56:30;2.23;;;1.20;;
4529;SDS011;2277;51.626;7.516;2022-11-15T08:58:56;2.30;;;1.00;;
4529;SDS011;2277;51.626;7.516;2022-11-15T09:01:21;2.63;;;1.60;;
4529;SDS011;2277;51.626;7.516;2022-11-15T09:03:47;3.70;;;1.90;;
4529;SDS011;2277;51.626;7.516;2022-11-15T09:06:13;2.53;;;1.20;;
4529;SDS011;2277;51.626;7.516;2022-11-15T09:08:39;2.70;;;1.67;;
4529;SDS011;2277;51.626;7.516;2022-11-15T09:11:06;1.20;;;1.00;;
4529;SDS011;2277;51.626;7.516;2022-11-15T09:13:33;1.50;;;1.17;;
4529;SDS011;2277;51.626;7.516;2022-11-15T09:16:00;3.50;;;1.77;;
4529;SDS011;2277;51.626;7.516;2022-11-15T09:18:26;1.50;;;1.00;;
4529;SDS011;2277;51.626;7.516;2022-11-15T09:20:54;2.80;;;1.00;;
4529;SDS011;2277;51.626;7.516;2022-11-15T09:23:23;2.03;;;1.57;;
4529;SDS011;2277;51.626;7.516;2022-11-15T09:25:50;1.93;;;1.10;;
4529;SDS011;2277;51.626;7.516;2022-11-15T09:28:16;1.40;;;1.30;;
4529;SDS011;2277;51.626;7.516;2022-11-15T09:30:42;2.43;;;1.50;;
4529;SDS011;2277;51.626;7.516;2022-11-15T09:33:08;1.00;;;0.80;;
4529;SDS011;2277;51.626;7.516;2022-11-15T09:35:35;3.97;;;1.40;;
4529;SDS011;2277;51.626;7.516;2022-11-15T09:38:00;3.80;;;1.37;;
4529;SDS011;2277;51.626;7.516;2022-11-15T09:40:27;2.70;;;1.30;;
4529;SDS011;2277;51.626;7.516;2022-11-15T09:45:40;1.73;;;1.20;;
4529;SDS011;2277;51.626;7.516;2022-11-15T09:51:14;13.17;;;1.67;;
4529;SDS011;2277;51.626;7.516;2022-11-15T09:56:30;2.80;;;1.47;;
4529;SDS011;2277;51.626;7.516;2022-11-15T10:04:19;2.80;;;2.00;;
4529;SDS011;2277;51.626;7.516;2022-11-15T10:06:49;2.37;;;1.57;;
4529;SDS011;2277;51.626;7.516;2022-11-15T10:12:18;2.20;;;1.40;;
4529;SDS011;2277;51.626;7.516;2022-11-15T10:14:45;1.47;;;1.20;;
4529;SDS011;2277;51.626;7.516;2022-11-15T10:25:10;1.10;;;0.90;;
4529;SDS011;2277;51.626;7.516;2022-11-15T10:27:43;2.90;;;1.20;;
4529;SDS011;2277;51.626;7.516;2022-11-15T10:30:12;1.10;;;0.90;;
4529;SDS011;2277;51.626;7.516;2022-11-15T10:32:40;6.10;;;1.87;;
4529;SDS011;2277;51.626;7.516;2022-11-15T10:35:18;1.37;;;1.00;;
4529;SDS011;2277;51.626;7.516;2022-11-15T10:37:47;2.70;;;1.53;;
4529;SDS011;2277;51.626;7.516;2022-11-15T10:40:18;1.50;;;1.30;;
4529;SDS011;2277;51.626;7.516;2022-11-15T10:42:44;1.93;;;0.90;;
4529;SDS011;2277;51.626;7.516;2022-11-15T10:45:43;2.17;;;1.50;;
4529;SDS011;2277;51.626;7.516;2022-11-15T10:50:38;3.73;;;1.40;;
4529;SDS011;2277;51.626;7.516;2022-11-15T10:53:11;1.80;;;1.40;;
4529;SDS011;2277;51.626;7.516;2022-11-15T10:55:46;1.50;;;0.90;;
4529;SDS011;2277;51.626;7.516;2022-11-15T10:58:33;1.77;;;0.90;;
4529;SDS011;2277;51.626;7.516;2022-11-15T11:01:23;1.20;;;1.00;;
4529;SDS011;2277;51.626;7.516;2022-11-15T11:04:08;1.13;;;0.73;;
4529;SDS011;2277;51.626;7.516;2022-11-15T11:12:02;3.00;;;1.00;;
4529;SDS011;2277;51.626;7.516;2022-11-15T11:14:32;1.37;;;0.97;;
4529;SDS011;2277;51.626;7.516;2022-11-15T11:25:19;9.13;;;1.30;;
4529;SDS011;2277;51.626;7.516;2022-11-15T11:30:56;1.80;;;1.20;;
4529;SDS011;2277;51.626;7.516;2022-11-15T11:33:31;3.20;;;1.47;;
4529;SDS011;2277;51.626;7.516;2022-11-15T11:44:28;3.13;;;1.13;;
4529;SDS011;2277;51.626;7.516;2022-11-15T11:49:53;5.37;;;1.00;;
4529;SDS011;2277;51.626;7.516;2022-11-15T11:52:33;2.03;;;1.80;;
4529;SDS011;2277;51.626;7.516;2022-11-15T11:55:10;1.33;;;1.23;;
4529;SDS011;2277;51.626;7.516;2022-11-15T12:00:35;2.13;;;1.13;;
4529;SDS011;2277;51.626;7.516;2022-11-15T12:17:08;2.63;;;0.90;;
4529;SDS011;2277;51.626;7.516;2022-11-15T12:19:35;1.17;;;0.80;;
4529;SDS011;2277;51.626;7.516;2022-11-15T12:22:08;3.70;;;0.77;;
4529;SDS011;2277;51.626;7.516;2022-11-15T12:30:04;1.50;;;1.30;;
4529;SDS011;2277;51.626;7.516;2022-11-15T12:32:59;1.63;;;1.20;;
4529;SDS011;2277;51.626;7.516;2022-11-15T12:37:55;1.10;;;0.80;;
4529;SDS011;2277;51.626;7.516;2022-11-15T12:40:28;1.27;;;0.90;;
4529;SDS011;2277;51.626;7.516;2022-11-15T12:45:31;1.30;;;0.70;;
4529;SDS011;2277;51.626;7.516;2022-11-15T12:51:00;1.00;;;0.80;;
4529;SDS011;2277;51.626;7.516;2022-11-15T12:53:27;2.00;;;0.90;;
4529;SDS011;2277;51.626;7.516;2022-11-15T12:58:41;2.80;;;0.90;;
4529;SDS011;2277;51.626;7.516;2022-11-15T13:01:08;1.33;;;0.90;;
4529;SDS011;2277;51.626;7.516;2022-11-15T13:03:34;1.00;;;0.70;;
4529;SDS011;2277;51.626;7.516;2022-11-15T13:06:01;1.20;;;1.03;;
4529;SDS011;2277;51.626;7.516;2022-11-15T13:09:02;1.60;;;0.90;;
4529;SDS011;2277;51.626;7.516;2022-11-15T13:15:14;1.27;;;0.70;;
4529;SDS011;2277;51.626;7.516;2022-11-15T13:19:49;2.03;;;0.90;;
4529;SDS011;2277;51.626;7.516;2022-11-15T13:22:24;3.30;;;3.00;;
4529;SDS011;2277;51.626;7.516;2022-11-15T13:25:15;2.03;;;0.97;;
4529;SDS011;2277;51.626;7.516;2022-11-15T13:28:00;1.53;;;0.80;;
4529;SDS011;2277;51.626;7.516;2022-11-15T13:30:28;3.60;;;1.97;;
4529;SDS011;2277;51.626;7.516;2022-11-15T13:32:56;4.30;;;1.20;;
4529;SDS011;2277;51.626;7.516;2022-11-15T13:35:27;2.47;;;1.53;;
4529;SDS011;2277;51.626;7.516;2022-11-15T13:37:55;4.00;;;1.47;;
4529;SDS011;2277;51.626;7.516;2022-11-15T13:42:55;5.60;;;0.90;;
4529;SDS011;2277;51.626;7.516;2022-11-15T13:45:22;2.70;;;1.00;;
4529;SDS011;2277;51.626;7.516;2022-11-15T13:47:53;3.53;;;2.30;;
4529;SDS011;2277;51.626;7.516;2022-11-15T13:50:22;1.47;;;0.90;;
4529;SDS011;2277;51.626;7.516;2022-11-15T13:52:53;1.00;;;0.63;;
4529;SDS011;2277;51.626;7.516;2022-11-15T13:55:22;1.30;;;0.93;;
4529;SDS011;2277;51.626;7.516;2022-11-15T14:00:36;6.10;;;1.10;;
4529;SDS011;2277;51.626;7.516;2022-11-15T14:03:21;1.80;;;1.40;;
4529;SDS011;2277;51.626;7.516;2022-11-15T14:06:10;1.30;;;0.97;;
4529;SDS011;2277;51.626;7.516;2022-11-15T14:08:39;2.20;;;0.70;;
4529;SDS011;2277;51.626;7.516;2022-11-15T14:11:25;1.50;;;1.07;;
4529;SDS011;2277;51.626;7.516;2022-11-15T14:16:33;1.27;;;1.00;;
4529;SDS011;2277;51.626;7.516;2022-11-15T14:19:02;0.97;;;0.70;;
4529;SDS011;2277;51.626;7.516;2022-11-15T14:21:29;2.10;;;1.90;;
4529;SDS011;2277;51.626;7.516;2022-11-15T14:26:40;1.47;;;1.13;;
4529;SDS011;2277;51.626;7.516;2022-11-15T14:29:22;8.93;;;2.43;;
4529;SDS011;2277;51.626;7.516;2022-11-15T14:31:48;2.13;;;1.33;;
4529;SDS011;2277;51.626;7.516;2022-11-15T14:34:14;2.77;;;0.90;;
4529;SDS011;2277;51.626;7.516;2022-11-15T14:36:40;1.20;;;1.00;;
4529;SDS011;2277;51.626;7.516;2022-11-15T14:39:05;4.30;;;1.43;;
4529;SDS011;2277;51.626;7.516;2022-11-15T14:41:34;5.03;;;2.30;;
4529;SDS011;2277;51.626;7.516;2022-11-15T14:44:03;2.17;;;1.00;;
4529;SDS011;2277;51.626;7.516;2022-11-15T14:46:30;4.20;;;1.40;;
4529;SDS011;2277;51.626;7.516;2022-11-15T14:48:55;2.03;;;1.87;;
4529;SDS011;2277;51.626;7.516;2022-11-15T14:51:21;2.10;;;1.70;;
4529;SDS011;2277;51.626;7.516;2022-11-15T14:53:47;2.03;;;1.83;;
4529;SDS011;2277;51.626;7.516;2022-11-15T14:56:13;3.20;;;2.20;;
4529;SDS011;2277;51.626;7.516;2022-11-15T14:58:39;5.90;;;2.80;;
4529;SDS011;2277;51.626;7.516;2022-11-15T15:01:19;2.53;;;1.37;;
4529;SDS011;2277;51.626;7.516;2022-11-15T15:03:48;2.07;;;1.20;;
4529;SDS011;2277;51.626;7.516;2022-11-15T15:06:13;1.70;;;1.60;;
4529;SDS011;2277;51.626;7.516;2022-11-15T15:08:40;2.70;;;1.40;;
4529;SDS011;2277;51.626;7.516;2022-11-15T15:11:17;1.50;;;1.30;;
4529;SDS011;2277;51.626;7.516;2022-11-15T15:13:46;1.27;;;0.90;;
4529;SDS011;2277;51.626;7.516;2022-11-15T15:16:12;1.53;;;1.03;;
4529;SDS011;2277;51.626;7.516;2022-11-15T15:18:37;1.77;;;1.20;;
4529;SDS011;2277;51.626;7.516;2022-11-15T15:21:04;2.07;;;1.27;;
4529;SDS011;2277;51.626;7.516;2022-11-15T15:23:41;1.10;;;0.90;;
4529;SDS011;2277;51.626;7.516;2022-11-15T15:26:06;2.17;;;1.50;;
4529;SDS011;2277;51.626;7.516;2022-11-15T15:28:32;1.27;;;1.17;;
4529;SDS011;2277;51.626;7.516;2022-11-15T15:30:58;3.20;;;1.73;;
4529;SDS011;2277;51.626;7.516;2022-11-15T15:33:23;1.20;;;0.90;;
4529;SDS011;2277;51.626;7.516;2022-11-15T15:35:49;4.40;;;1.60;;
4529;SDS011;2277;51.626;7.516;2022-11-15T15:38:14;2.17;;;1.97;;
4529;SDS011;2277;51.626;7.516;2022-11-15T15:40:40;3.13;;;2.10;;
4529;SDS011;2277;51.626;7.516;2022-11-15T15:43:06;1.83;;;1.50;;
4529;SDS011;2277;51.626;7.516;2022-11-15T15:45:34;2.80;;;2.43;;
4529;SDS011;2277;51.626;7.516;2022-11-15T15:48:02;4.03;;;2.60;;
4529;SDS011;2277;51.626;7.516;2022-11-15T15:50:28;1.70;;;1.13;;
4529;SDS011;2277;51.626;7.516;2022-11-15T15:52:57;2.80;;;1.83;;
4529;SDS011;2277;51.626;7.516;2022-11-15T15:55:24;2.73;;;2.43;;
4529;SDS011;2277;51.626;7.516;2022-11-15T15:57:50;6.83;;;3.63;;
4529;SDS011;2277;51.626;7.516;2022-11-15T16:00:17;2.50;;;2.20;;
4529;SDS011;2277;51.626;7.516;2022-11-15T16:02:43;5.53;;;3.10;;
4529;SDS011;2277;51.626;7.516;2022-11-15T16:05:09;4.37;;;3.37;;
4529;SDS011;2277;51.626;7.516;2022-11-15T16:07:36;2.17;;;1.93;;
4529;SDS011;2277;51.626;7.516;2022-11-15T16:10:04;5.37;;;2.50;;
4529;SDS011;2277;51.626;7.516;2022-11-15T16:12:44;7.37;;;4.20;;
4529;SDS011;2277;51.626;7.516;2022-11-15T16:15:10;2.73;;;2.30;;
4529;SDS011;2277;51.626;7.516;2022-11-15T16:17:41;2.97;;;2.60;;
4529;SDS011;2277;51.626;7.516;2022-11-15T16:23:06;4.50;;;2.53;;
4529;SDS011;2277;51.626;7.516;2022-11-15T16:25:34;4.10;;;3.83;;
4529;SDS011;2277;51.626;7.516;2022-11-15T16:28:22;3.83;;;2.80;;
4529;SDS011;2277;51.626;7.516;2022-11-15T16:30:58;5.03;;;2.90;;
4529;SDS011;2277;51.626;7.516;2022-11-15T16:33:35;4.07;;;3.63;;
4529;SDS011;2277;51.626;7.516;2022-11-15T16:36:01;4.33;;;2.00;;
4529;SDS011;2277;51.626;7.516;2022-11-15T16:38:28;2.70;;;2.50;;
4529;SDS011;2277;51.626;7.516;2022-11-15T16:40:53;2.50;;;2.33;;
4529;SDS011;2277;51.626;7.516;2022-11-15T16:43:19;3.73;;;2.53;;
4529;SDS011;2277;51.626;7.516;2022-11-15T16:45:45;7.53;;;2.60;;
4529;SDS011;2277;51.626;7.516;2022-11-15T16:48:18;3.40;;;3.10;;
4529;SDS011;2277;51.626;7.516;2022-11-15T16:50:45;2.30;;;2.10;;
4529;SDS011;2277;51.626;7.516;2022-11-15T16:53:11;5.57;;;3.33;;
4529;SDS011;2277;51.626;7.516;2022-11-15T16:55:37;3.00;;;2.73;;
4529;SDS011;2277;51.626;7.516;2022-11-15T16:58:02;4.53;;;3.60;;
4529;SDS011;2277;51.626;7.516;2022-11-15T17:00:28;5.00;;;4.50;;
4529;SDS011;2277;51.626;7.516;2022-11-15T17:02:54;13.50;;;7.40;;
4529;SDS011;2277;51.626;7.516;2022-11-15T17:05:21;6.13;;;5.40;;
4529;SDS011;2277;51.626;7.516;2022-11-15T17:07:51;6.63;;;5.70;;
4529;SDS011;2277;51.626;7.516;2022-11-15T17:10:18;5.43;;;4.93;;
4529;SDS011;2277;51.626;7.516;2022-11-15T17:12:48;10.47;;;4.17;;
4529;SDS011;2277;51.626;7.516;2022-11-15T17:15:15;3.70;;;3.33;;
4529;SDS011;2277;51.626;7.516;2022-11-15T17:17:41;4.17;;;3.17;;
4529;SDS011;2277;51.626;7.516;2022-11-15T17:20:12;8.90;;;3.87;;
4529;SDS011;2277;51.626;7.516;2022-11-15T17:22:39;5.70;;;3.67;;
4529;SDS011;2277;51.626;7.516;2022-11-15T17:25:04;5.00;;;3.73;;
4529;SDS011;2277;51.626;7.516;2022-11-15T17:27:30;4.53;;;3.80;;
4529;SDS011;2277;51.626;7.516;2022-11-15T17:29:56;3.93;;;3.40;;
4529;SDS011;2277;51.626;7.516;2022-11-15T17:32:22;2.20;;;2.00;;
4529;SDS011;2277;51.626;7.516;2022-11-15T17:34:48;2.70;;;2.50;;
4529;SDS011;2277;51.626;7.516;2022-11-15T17:37:13;3.00;;;2.40;;
4529;SDS011;2277;51.626;7.516;2022-11-15T17:39:39;5.90;;;3.73;;